createdAt,value
2018-09-20T00:01:32.975Z,9.80
2018-09-20T00:03:13.224Z,11.00
2018-09-20T00:04:48.923Z,10.60
2018-09-20T00:06:24.728Z,11.00
2018-09-20T00:08:00.048Z,13.40
2018-09-20T00:09:37.371Z,11.80
2018-09-20T00:11:13.449Z,11.80
2018-09-20T00:12:49.125Z,12.00
2018-09-20T00:14:29.328Z,8.60
2018-09-20T00:16:09.224Z,10.40
2018-09-20T00:17:47.268Z,10.80
2018-09-20T00:19:25.039Z,10.20
2018-09-20T00:21:03.959Z,10.00
2018-09-20T00:24:29.370Z,10.20
2018-09-20T00:26:15.158Z,8.00
2018-09-20T00:27:55.309Z,9.80
2018-09-20T00:29:32.254Z,13.80
2018-09-20T00:31:11.730Z,9.80
2018-09-20T00:32:47.815Z,11.40
2018-09-20T00:34:23.747Z,9.80
2018-09-20T00:36:00.327Z,8.00
2018-09-20T00:37:35.956Z,8.00
2018-09-20T00:39:14.200Z,7.80
2018-09-20T00:40:49.959Z,8.60
2018-09-20T00:42:26.625Z,10.60
2018-09-20T00:44:07.784Z,8.40
2018-09-20T00:45:44.222Z,12.60
2018-09-20T00:47:20.014Z,10.80
2018-09-20T00:48:57.250Z,12.00
2018-09-20T00:50:32.428Z,11.00
2018-09-20T00:52:08.233Z,13.40
2018-09-20T00:53:46.146Z,9.60
2018-09-20T00:55:22.427Z,10.00
2018-09-20T00:57:00.392Z,12.00
2018-09-20T00:58:36.429Z,9.40
2018-09-20T01:00:13.539Z,10.40
2018-09-20T01:01:48.910Z,7.80
2018-09-20T01:03:26.695Z,7.60
2018-09-20T01:05:06.650Z,5.40
2018-09-20T01:06:45.367Z,11.00
2018-09-20T01:08:21.679Z,10.80
2018-09-20T01:09:58.720Z,16.60
2018-09-20T01:11:36.802Z,7.00
2018-09-20T01:13:13.023Z,9.40
2018-09-20T01:14:53.143Z,10.60
2018-09-20T01:16:28.925Z,8.40
2018-09-20T01:18:10.348Z,9.40
2018-09-20T01:19:47.590Z,10.40
2018-09-20T01:21:25.216Z,10.00
2018-09-20T01:23:05.794Z,11.00
2018-09-20T01:24:43.543Z,13.80
2018-09-20T01:26:19.183Z,9.40
2018-09-20T01:27:54.547Z,10.00
2018-09-20T01:29:29.712Z,9.00
2018-09-20T01:31:04.745Z,10.80
2018-09-20T01:32:39.806Z,7.80
2018-09-20T01:34:15.514Z,12.80
2018-09-20T01:35:50.723Z,9.00
2018-09-20T01:37:26.578Z,10.80
2018-09-20T01:39:01.769Z,9.60
2018-09-20T01:40:36.934Z,11.80
2018-09-20T01:42:14.074Z,10.80
2018-09-20T01:43:49.351Z,7.40
2018-09-20T01:45:25.076Z,7.60
2018-09-20T01:47:00.366Z,8.20
2018-09-20T01:48:35.533Z,13.00
2018-09-20T01:50:13.475Z,7.40
2018-09-20T01:51:48.898Z,10.60
2018-09-20T01:53:24.647Z,14.00
2018-09-20T01:55:00.147Z,13.20
2018-09-20T01:56:35.101Z,10.60
2018-09-20T01:58:11.792Z,9.80
2018-09-20T01:59:47.910Z,7.80
2018-09-20T02:01:23.389Z,9.80
2018-09-20T02:02:59.472Z,12.80
2018-09-20T02:04:35.460Z,9.20
2018-09-20T02:06:13.097Z,8.40
2018-09-20T02:07:49.539Z,10.60
2018-09-20T02:09:25.121Z,8.00
2018-09-20T02:11:01.763Z,8.80
2018-09-20T02:12:39.503Z,6.60
2018-09-20T02:14:17.721Z,11.00
2018-09-20T02:15:56.622Z,11.20
2018-09-20T02:17:32.585Z,10.20
2018-09-20T02:19:07.971Z,8.00
2018-09-20T02:20:43.350Z,10.00
2018-09-20T02:22:19.137Z,11.80
2018-09-20T02:23:54.333Z,10.60
2018-09-20T02:25:29.800Z,9.20
2018-09-20T02:27:05.774Z,9.60
2018-09-20T02:28:41.376Z,5.40
2018-09-20T02:30:17.661Z,10.40
2018-09-20T02:31:52.930Z,10.00
2018-09-20T02:33:30.527Z,9.80
2018-09-20T02:35:05.593Z,11.80
2018-09-20T02:36:41.256Z,13.60
2018-09-20T02:38:17.505Z,10.80
2018-09-20T02:39:52.778Z,8.40
2018-09-20T02:41:28.239Z,10.60
2018-09-20T02:43:03.349Z,9.80
2018-09-20T02:44:38.480Z,13.00
2018-09-20T02:46:31.457Z,7.80
2018-09-20T02:48:08.817Z,7.00
2018-09-20T02:49:45.844Z,9.80
2018-09-20T02:51:21.141Z,13.40
2018-09-20T02:52:56.474Z,8.20
2018-09-20T02:54:35.306Z,8.40
2018-09-20T02:56:10.983Z,7.00
2018-09-20T02:57:49.308Z,7.20
2018-09-20T02:59:26.277Z,3.20
2018-09-20T03:01:03.146Z,11.40
2018-09-20T03:02:41.798Z,10.00
2018-09-20T03:04:17.554Z,8.20
2018-09-20T03:05:53.091Z,15.60
2018-09-20T03:07:29.012Z,10.60
2018-09-20T03:09:04.890Z,13.40
2018-09-20T03:10:41.269Z,13.00
2018-09-20T03:12:16.684Z,15.40
2018-09-20T03:13:51.632Z,8.40
2018-09-20T03:15:27.149Z,11.00
2018-09-20T03:17:02.501Z,13.00
2018-09-20T03:18:37.992Z,11.40
2018-09-20T03:20:13.025Z,11.20
2018-09-20T03:21:48.113Z,12.80
2018-09-20T03:23:24.237Z,11.80
2018-09-20T03:24:59.154Z,9.00
2018-09-20T03:26:35.975Z,10.40
2018-09-20T03:28:10.972Z,13.00
2018-09-20T03:29:46.096Z,10.80
2018-09-20T03:31:21.385Z,13.40
2018-09-20T03:33:04.971Z,14.40
2018-09-20T03:34:40.659Z,15.80
2018-09-20T03:36:15.954Z,14.20
2018-09-20T03:37:50.982Z,13.80
2018-09-20T03:39:26.638Z,12.00
2018-09-20T03:41:04.822Z,9.60
2018-09-20T03:42:40.038Z,8.20
2018-09-20T03:44:16.176Z,10.60
2018-09-20T03:45:51.948Z,13.60
2018-09-20T03:47:27.473Z,14.20
2018-09-20T03:49:03.781Z,9.00
2018-09-20T03:50:39.188Z,13.20
2018-09-20T03:52:14.671Z,10.20
2018-09-20T03:53:54.794Z,12.60
2018-09-20T03:55:30.850Z,10.20
2018-09-20T03:57:06.050Z,10.00
2018-09-20T03:58:41.087Z,10.00
2018-09-20T04:00:17.426Z,10.40
2018-09-20T04:01:52.787Z,10.80
2018-09-20T04:03:30.157Z,16.20
2018-09-20T04:05:05.892Z,12.60
2018-09-20T04:06:40.925Z,11.00
2018-09-20T04:08:16.149Z,9.20
2018-09-20T04:09:52.663Z,11.20
2018-09-20T04:11:27.614Z,11.60
2018-09-20T04:13:02.632Z,13.80
2018-09-20T04:14:38.537Z,12.20
2018-09-20T04:16:14.743Z,10.60
2018-09-20T04:17:52.189Z,13.00
2018-09-20T04:21:34.607Z,11.60
2018-09-20T04:23:10.185Z,13.80
2018-09-20T04:24:45.720Z,15.00
2018-09-20T04:26:20.720Z,13.00
2018-09-20T04:27:58.221Z,12.60
2018-09-20T04:29:33.758Z,11.60
2018-09-20T04:31:09.470Z,13.20
2018-09-20T04:32:44.508Z,13.60
2018-09-20T04:34:24.350Z,14.00
2018-09-20T04:36:03.043Z,13.80
2018-09-20T04:37:40.224Z,9.20
2018-09-20T04:39:16.476Z,13.40
2018-09-20T04:40:53.523Z,13.40
2018-09-20T04:42:28.610Z,15.80
2018-09-20T04:44:04.928Z,11.20
2018-09-20T04:45:40.048Z,13.40
2018-09-20T04:47:15.940Z,13.40
2018-09-20T04:48:52.179Z,12.60
2018-09-20T04:50:29.414Z,15.40
2018-09-20T04:52:05.713Z,15.80
2018-09-20T04:53:41.908Z,12.20
2018-09-20T04:55:18.298Z,13.00
2018-09-20T04:56:54.711Z,16.40
2018-09-20T04:58:33.714Z,9.60
2018-09-20T05:00:09.363Z,11.40
2018-09-20T05:01:48.344Z,13.40
2018-09-20T05:03:24.317Z,14.60
2018-09-20T05:05:00.052Z,12.00
2018-09-20T05:06:36.747Z,13.60
2018-09-20T05:08:14.793Z,13.80
2018-09-20T05:09:53.485Z,13.00
2018-09-20T05:11:29.699Z,14.20
2018-09-20T05:13:05.359Z,15.00
2018-09-20T05:14:41.300Z,13.40
2018-09-20T05:16:19.737Z,13.60
2018-09-20T05:17:56.714Z,12.60
2018-09-20T05:19:36.400Z,14.00
2018-09-20T05:21:14.857Z,17.60
2018-09-20T05:22:56.285Z,14.00
2018-09-20T05:24:34.715Z,13.80
2018-09-20T05:26:10.571Z,10.80
2018-09-20T05:27:50.390Z,11.00
2018-09-20T05:29:27.776Z,10.80
2018-09-20T05:31:11.240Z,13.00
2018-09-20T05:32:46.464Z,13.00
2018-09-20T05:34:26.802Z,16.60
2018-09-20T05:36:02.949Z,14.80
2018-09-20T05:37:38.163Z,16.60
2018-09-20T05:39:14.269Z,13.20
2018-09-20T05:40:50.285Z,10.00
2018-09-20T05:42:25.636Z,14.20
2018-09-20T05:44:01.311Z,11.60
2018-09-20T05:45:36.526Z,15.40
2018-09-20T05:47:12.825Z,14.20
2018-09-20T05:48:48.623Z,12.40
2018-09-20T05:50:23.840Z,15.80
2018-09-20T05:51:59.315Z,12.40
2018-09-20T05:53:34.732Z,11.60
2018-09-20T05:55:11.733Z,14.40
2018-09-20T05:56:48.693Z,18.00
2018-09-20T05:58:24.004Z,16.00
2018-09-20T05:59:59.554Z,11.60
2018-09-20T06:01:35.195Z,16.60
2018-09-20T06:03:10.432Z,9.80
2018-09-20T06:04:45.596Z,14.20
2018-09-20T06:06:20.863Z,20.80
2018-09-20T06:07:55.906Z,27.20
2018-09-20T06:09:32.137Z,14.00
2018-09-20T06:11:07.687Z,15.00
2018-09-20T06:12:43.210Z,12.40
2018-09-20T06:14:19.050Z,15.80
2018-09-20T06:15:59.312Z,12.60
2018-09-20T06:17:34.614Z,11.60
2018-09-20T06:19:11.297Z,11.80
2018-09-20T06:20:51.730Z,11.40
2018-09-20T06:22:26.822Z,11.80
2018-09-20T06:24:03.865Z,12.60
2018-09-20T06:25:41.468Z,10.40
2018-09-20T06:27:17.768Z,12.00
2018-09-20T06:28:52.938Z,11.60
2018-09-20T06:30:29.416Z,12.20
2018-09-20T06:32:05.804Z,12.00
2018-09-20T06:33:42.955Z,16.40
2018-09-20T06:35:19.361Z,14.20
2018-09-20T06:36:55.522Z,12.40
2018-09-20T06:38:30.933Z,13.60
2018-09-20T06:40:07.419Z,14.40
2018-09-20T06:41:43.692Z,9.80
2018-09-20T06:43:19.504Z,9.00
2018-09-20T06:44:56.829Z,12.40
2018-09-20T06:46:32.448Z,12.40
2018-09-20T06:48:08.621Z,15.20
2018-09-20T06:49:44.364Z,10.20
2018-09-20T06:51:20.088Z,19.20
2018-09-20T06:52:55.492Z,14.00
2018-09-20T06:54:31.788Z,11.00
2018-09-20T06:56:09.192Z,15.60
2018-09-20T06:57:44.534Z,12.20
2018-09-20T06:59:20.716Z,13.00
2018-09-20T07:00:56.634Z,13.60
2018-09-20T07:02:33.005Z,10.80
2018-09-20T07:04:08.344Z,13.80
2018-09-20T07:05:45.103Z,12.60
2018-09-20T07:07:21.861Z,10.00
2018-09-20T07:08:57.696Z,13.80
2018-09-20T07:10:33.165Z,14.20
2018-09-20T07:12:10.758Z,15.80
2018-09-20T07:13:47.138Z,17.40
2018-09-20T07:15:22.805Z,14.40
2018-09-20T07:16:59.599Z,13.80
2018-09-20T07:18:38.067Z,15.00
2018-09-20T07:20:15.183Z,12.20
2018-09-20T07:21:50.489Z,10.60
2018-09-20T07:23:27.254Z,14.20
2018-09-20T07:25:03.324Z,13.40
2018-09-20T07:26:39.504Z,12.80
2018-09-20T07:28:14.916Z,14.40
2018-09-20T07:29:50.120Z,12.00
2018-09-20T07:31:26.245Z,13.00
2018-09-20T07:33:02.973Z,11.80
2018-09-20T07:34:40.527Z,11.40
2018-09-20T07:36:19.883Z,12.20
2018-09-20T07:37:58.674Z,9.20
2018-09-20T07:39:33.983Z,13.20
2018-09-20T07:41:10.208Z,12.20
2018-09-20T07:42:45.761Z,12.40
2018-09-20T07:44:21.276Z,9.40
2018-09-20T07:45:57.771Z,8.00
2018-09-20T07:47:33.376Z,10.60
2018-09-20T07:49:10.313Z,11.80
2018-09-20T07:50:48.309Z,10.20
2018-09-20T07:52:25.779Z,14.40
2018-09-20T07:54:01.391Z,8.20
2018-09-20T07:55:38.233Z,10.60
2018-09-20T07:57:14.381Z,11.80
2018-09-20T07:58:49.901Z,12.60
2018-09-20T08:00:25.943Z,11.40
2018-09-20T08:02:01.571Z,10.60
2018-09-20T08:03:39.797Z,8.00
2018-09-20T08:05:16.512Z,8.80
2018-09-20T08:06:54.328Z,11.60
2018-09-20T08:08:33.324Z,12.20
2018-09-20T08:10:09.345Z,9.60
2018-09-20T08:11:45.785Z,12.20
2018-09-20T08:13:22.826Z,8.40
2018-09-20T08:14:58.428Z,6.80
2018-09-20T08:16:34.205Z,10.00
2018-09-20T08:18:13.628Z,11.20
2018-09-20T08:19:50.755Z,10.80
2018-09-20T08:21:26.705Z,11.40
2018-09-20T08:23:02.640Z,10.00
2018-09-20T08:24:40.206Z,9.60
2018-09-20T08:26:15.957Z,10.60
2018-09-20T08:27:52.893Z,11.60
2018-09-20T08:29:29.369Z,10.80
2018-09-20T08:31:06.187Z,10.00
2018-09-20T08:32:43.198Z,10.80
2018-09-20T08:34:22.193Z,9.00
2018-09-20T08:35:57.473Z,8.20
2018-09-20T08:37:33.755Z,8.80
2018-09-20T08:39:11.639Z,9.60
2018-09-20T08:40:48.660Z,7.40
2018-09-20T08:42:24.719Z,10.20
2018-09-20T08:44:00.197Z,10.00
2018-09-20T08:45:36.705Z,11.00
2018-09-20T08:47:13.694Z,11.80
2018-09-20T08:48:50.167Z,10.20
2018-09-20T08:50:25.732Z,11.00
2018-09-20T08:52:01.174Z,6.00
2018-09-20T08:53:37.827Z,9.40
2018-09-20T08:55:14.986Z,8.20
2018-09-20T08:56:52.950Z,11.60
2018-09-20T08:58:38.375Z,9.80
2018-09-20T09:00:16.447Z,10.60
2018-09-20T09:01:54.325Z,7.80
2018-09-20T09:03:30.620Z,9.00
2018-09-20T09:05:06.588Z,7.80
2018-09-20T09:06:45.600Z,6.80
2018-09-20T09:08:23.856Z,7.80
2018-09-20T09:10:01.441Z,8.00
2018-09-20T09:11:39.696Z,7.80
2018-09-20T09:13:17.231Z,7.00
2018-09-20T09:14:55.346Z,9.40
2018-09-20T09:16:34.198Z,8.80
2018-09-20T09:18:12.245Z,7.00
2018-09-20T09:19:48.331Z,6.80
2018-09-20T09:21:26.079Z,8.00
2018-09-20T09:23:04.009Z,8.20
2018-09-20T09:24:41.006Z,6.20
2018-09-20T09:26:18.118Z,7.00
2018-09-20T09:27:55.919Z,8.00
2018-09-20T09:29:31.733Z,7.00
2018-09-20T09:31:07.878Z,5.00
2018-09-20T09:32:43.597Z,9.00
2018-09-20T09:34:19.096Z,6.60
2018-09-20T09:35:56.815Z,8.60
2018-09-20T09:37:32.149Z,4.80
2018-09-20T09:39:11.121Z,7.40
2018-09-20T09:40:46.699Z,8.40
2018-09-20T09:42:23.293Z,7.60
2018-09-20T09:44:00.782Z,6.80
2018-09-20T09:45:36.495Z,10.40
2018-09-20T09:47:12.867Z,6.60
2018-09-20T09:48:51.370Z,8.40
2018-09-20T09:50:26.793Z,6.80
2018-09-20T09:52:03.106Z,7.00
2018-09-20T09:53:39.713Z,7.00
2018-09-20T09:55:25.101Z,5.60
2018-09-20T09:57:01.184Z,5.00
2018-09-20T09:58:39.657Z,5.20
2018-09-20T10:00:17.787Z,8.80
2018-09-20T10:01:56.120Z,7.00
2018-09-20T10:03:32.224Z,6.40
2018-09-20T10:05:08.338Z,6.60
2018-09-20T10:06:45.506Z,10.20
2018-09-20T10:08:21.053Z,7.40
2018-09-20T10:09:56.784Z,8.00
2018-09-20T10:13:15.374Z,7.00
2018-09-20T10:16:35.626Z,7.00
2018-09-20T10:18:13.782Z,7.00
2018-09-20T10:19:49.732Z,7.20
2018-09-20T10:21:25.587Z,8.80
2018-09-20T10:23:04.935Z,8.00
2018-09-20T10:24:41.168Z,7.00
2018-09-20T10:26:17.272Z,12.60
2018-09-20T10:27:59.283Z,8.00
2018-09-20T10:29:36.970Z,8.40
2018-09-20T10:31:13.358Z,7.00
2018-09-20T10:32:52.470Z,8.40
2018-09-20T10:34:29.173Z,8.40
2018-09-20T10:36:05.636Z,8.80
2018-09-20T10:37:48.468Z,7.80
2018-09-20T10:39:26.539Z,7.40
2018-09-20T10:41:05.329Z,9.00
2018-09-20T10:42:41.463Z,5.20
2018-09-20T10:44:18.321Z,6.60
2018-09-20T10:45:56.519Z,6.60
2018-09-20T10:47:31.800Z,8.20
2018-09-20T10:49:09.155Z,8.20
2018-09-20T10:50:46.707Z,11.00
2018-09-20T10:52:25.136Z,7.00
2018-09-20T10:54:02.613Z,6.60
2018-09-20T10:55:40.358Z,7.00
2018-09-20T10:57:17.587Z,7.20
2018-09-20T10:58:53.239Z,7.40
2018-09-20T11:00:28.746Z,8.00
2018-09-20T11:02:07.741Z,6.00
2018-09-20T11:03:43.352Z,8.00
2018-09-20T11:05:20.857Z,7.80
2018-09-20T11:06:58.554Z,9.00
2018-09-20T11:08:34.697Z,5.00
2018-09-20T11:10:10.484Z,7.20
2018-09-20T11:11:46.788Z,9.80
2018-09-20T11:13:23.616Z,7.60
2018-09-20T11:14:59.369Z,9.60
2018-09-20T11:16:36.854Z,8.80
2018-09-20T11:18:14.039Z,7.00
2018-09-20T11:19:51.783Z,6.40
2018-09-20T11:21:32.163Z,8.80
2018-09-20T11:23:13.190Z,8.00
2018-09-20T11:24:52.421Z,8.60
2018-09-20T11:26:33.401Z,7.00
2018-09-20T11:28:10.544Z,6.00
2018-09-20T11:29:47.548Z,8.40
2018-09-20T11:31:25.665Z,9.00
2018-09-20T11:33:04.629Z,9.00
2018-09-20T11:34:44.855Z,9.00
2018-09-20T11:36:22.845Z,9.00
2018-09-20T11:38:04.001Z,6.00
2018-09-20T11:39:39.766Z,10.40
2018-09-20T11:41:20.732Z,7.80
2018-09-20T11:42:58.232Z,8.00
2018-09-20T11:44:34.007Z,7.80
2018-09-20T11:46:11.729Z,8.40
2018-09-20T11:47:49.686Z,9.00
2018-09-20T11:49:25.633Z,9.60
2018-09-20T11:51:00.839Z,8.00
2018-09-20T11:52:36.457Z,7.00
2018-09-20T11:54:15.273Z,8.40
2018-09-20T11:55:51.685Z,6.80
2018-09-20T11:57:28.311Z,9.00
2018-09-20T11:59:03.640Z,8.20
2018-09-20T12:00:41.288Z,7.60
2018-09-20T12:02:17.446Z,5.80
2018-09-20T12:03:53.520Z,6.60
2018-09-20T12:05:30.049Z,9.80
2018-09-20T12:07:07.940Z,7.80
2018-09-20T12:08:43.735Z,7.00
2018-09-20T12:10:22.029Z,8.00
2018-09-20T12:11:58.636Z,8.80
2018-09-20T12:13:35.392Z,7.40
2018-09-20T12:15:16.636Z,6.00
2018-09-20T12:16:54.119Z,9.60
2018-09-20T12:18:31.250Z,9.20
2018-09-20T12:20:11.726Z,8.00
2018-09-20T12:21:49.831Z,7.00
2018-09-20T12:23:29.751Z,6.00
2018-09-20T12:27:50.787Z,10.60
2018-09-20T12:31:37.576Z,8.00
2018-09-20T12:33:13.385Z,7.20
2018-09-20T12:34:57.094Z,8.00
2018-09-20T12:36:38.714Z,7.00
2018-09-20T12:38:25.587Z,8.00
2018-09-20T12:40:24.619Z,8.60
2018-09-20T12:42:08.233Z,7.00
2018-09-20T12:43:54.859Z,7.80
2018-09-20T12:45:36.291Z,6.60
2018-09-20T12:47:26.857Z,6.40
2018-09-20T12:51:00.515Z,8.20
2018-09-20T12:52:42.394Z,5.60
2018-09-20T12:54:37.259Z,6.80
2018-09-20T12:56:17.870Z,8.20
2018-09-20T12:57:57.636Z,8.80
2018-09-20T12:59:42.503Z,9.20
2018-09-20T13:01:25.477Z,5.20
2018-09-20T13:03:02.123Z,8.00
2018-09-20T13:04:45.519Z,9.00
2018-09-20T13:06:24.356Z,8.00
2018-09-20T13:08:27.552Z,9.00
2018-09-20T13:11:57.604Z,7.60
2018-09-20T13:13:39.686Z,6.40
2018-09-20T13:15:18.283Z,8.60
2018-09-20T13:17:00.784Z,7.20
2018-09-20T13:18:37.919Z,8.00
2018-09-20T13:20:16.157Z,6.20
2018-09-20T13:21:52.899Z,7.40
2018-09-20T13:23:31.365Z,7.00
2018-09-20T13:25:09.500Z,8.40
2018-09-20T13:26:44.898Z,7.00
2018-09-20T13:28:28.946Z,7.00
2018-09-20T13:30:13.115Z,6.60
2018-09-20T13:31:56.040Z,8.60
2018-09-20T13:33:32.983Z,8.40
2018-09-20T13:35:11.717Z,7.60
2018-09-20T13:36:48.806Z,7.40
2018-09-20T13:38:24.281Z,6.60
2018-09-20T13:40:00.553Z,7.40
2018-09-20T13:41:39.215Z,6.60
2018-09-20T13:43:16.997Z,6.40
2018-09-20T13:44:55.885Z,8.20
2018-09-20T13:46:32.794Z,5.20
2018-09-20T13:48:12.487Z,8.40
2018-09-20T13:49:48.286Z,8.00
2018-09-20T13:51:24.461Z,6.20
2018-09-20T13:53:00.879Z,5.60
2018-09-20T13:54:37.404Z,7.20
2018-09-20T13:56:14.053Z,8.00
2018-09-20T13:57:50.333Z,8.00
2018-09-20T13:59:26.027Z,6.40
2018-09-20T14:01:03.184Z,9.60
2018-09-20T14:02:42.624Z,7.00
2018-09-20T14:04:23.203Z,9.20
2018-09-20T14:06:00.206Z,5.20
2018-09-20T14:07:38.811Z,7.60
2018-09-20T14:09:23.590Z,7.00
2018-09-20T14:11:02.434Z,7.20
2018-09-20T14:12:40.475Z,7.80
2018-09-20T14:14:20.721Z,5.80
2018-09-20T14:15:57.180Z,6.80
2018-09-20T14:17:32.876Z,7.20
2018-09-20T14:19:10.771Z,6.20
2018-09-20T14:20:49.747Z,5.60
2018-09-20T14:22:26.228Z,6.80
2018-09-20T14:24:03.688Z,5.80
2018-09-20T14:25:40.637Z,7.80
2018-09-20T14:27:18.535Z,6.80
2018-09-20T14:28:54.062Z,3.40
2018-09-20T14:30:30.485Z,5.00
2018-09-20T14:32:11.134Z,6.40
2018-09-20T14:33:48.646Z,7.60
2018-09-20T14:35:34.353Z,6.00
2018-09-20T14:37:11.533Z,5.40
2018-09-20T14:38:47.794Z,5.60
2018-09-20T14:40:23.500Z,7.00
2018-09-20T14:41:59.471Z,6.80
2018-09-20T14:43:35.525Z,8.00
2018-09-20T14:45:13.800Z,6.00
2018-09-20T14:46:53.267Z,4.20
2018-09-20T14:48:30.742Z,5.80
2018-09-20T14:50:08.839Z,6.80
2018-09-20T14:51:45.080Z,7.40
2018-09-20T14:53:20.999Z,6.00
2018-09-20T14:54:57.542Z,7.00
2018-09-20T14:58:20.375Z,5.60
2018-09-20T14:59:58.874Z,5.40
2018-09-20T15:01:49.502Z,7.00
2018-09-20T15:03:25.527Z,9.00
2018-09-20T15:05:05.399Z,6.00
2018-09-20T15:06:41.970Z,6.00
2018-09-20T15:08:22.729Z,6.00
2018-09-20T15:10:04.789Z,6.60
2018-09-20T15:11:41.586Z,6.40
2018-09-20T15:15:10.806Z,6.00
2018-09-20T15:16:49.007Z,2.60
2018-09-20T15:18:27.715Z,6.00
2018-09-20T15:20:09.644Z,1.00
2018-09-20T15:21:48.706Z,7.40
2018-09-20T15:23:30.530Z,8.00
2018-09-20T15:25:07.665Z,5.20
2018-09-20T15:26:45.121Z,6.00
2018-09-20T15:28:41.346Z,7.00
2018-09-20T15:30:21.431Z,7.60
2018-09-20T15:31:59.221Z,8.00
2018-09-20T15:38:08.526Z,4.60
2018-09-20T15:41:57.435Z,5.80
2018-09-20T15:43:36.249Z,5.60
2018-09-20T15:45:13.827Z,7.40
2018-09-20T15:46:52.134Z,7.00
2018-09-20T15:48:36.664Z,8.80
2018-09-20T15:50:16.141Z,7.20
2018-09-20T15:51:54.309Z,7.00
2018-09-20T15:53:30.917Z,6.40
2018-09-20T15:55:12.938Z,5.40
2018-09-20T15:56:51.177Z,7.20
2018-09-20T15:58:29.329Z,6.00
2018-09-20T16:00:14.132Z,6.00
2018-09-20T16:01:53.397Z,5.20
2018-09-20T16:03:34.816Z,5.00
2018-09-20T16:05:15.085Z,5.00
2018-09-20T16:06:53.504Z,7.00
2018-09-20T16:08:32.938Z,6.40
2018-09-20T16:11:16.647Z,6.40
2018-09-20T16:12:55.710Z,7.00
2018-09-20T16:14:33.533Z,4.40
2018-09-20T16:16:10.416Z,9.00
2018-09-20T16:17:52.026Z,4.80
2018-09-20T16:19:28.076Z,5.20
2018-09-20T16:21:04.854Z,5.60
2018-09-20T16:22:43.410Z,6.40
2018-09-20T16:24:24.080Z,9.00
2018-09-20T16:26:01.973Z,7.80
2018-09-20T16:27:38.888Z,5.60
2018-09-20T16:29:24.718Z,7.00
2018-09-20T16:35:21.601Z,6.00
2018-09-20T16:37:19.290Z,7.00
2018-09-20T16:38:59.828Z,9.00
2018-09-20T16:40:40.499Z,4.00
2018-09-20T16:42:24.569Z,5.80
2018-09-20T16:43:59.963Z,6.20
2018-09-20T16:45:36.321Z,5.80
2018-09-20T16:47:13.949Z,4.00
2018-09-20T16:48:54.757Z,6.00
2018-09-20T16:50:32.897Z,5.00
2018-09-20T16:52:09.533Z,5.20
2018-09-20T16:53:45.828Z,5.00
2018-09-20T16:55:24.237Z,6.00
2018-09-20T16:57:00.421Z,4.40
2018-09-20T16:58:37.937Z,7.60
2018-09-20T17:00:16.480Z,5.00
2018-09-20T17:01:53.526Z,5.60
2018-09-20T17:03:35.106Z,7.80
2018-09-20T17:05:13.017Z,8.00
2018-09-20T17:06:49.473Z,6.00
2018-09-20T17:08:28.245Z,9.20
2018-09-20T17:10:05.335Z,10.80
2018-09-20T17:11:44.686Z,10.40
2018-09-20T17:13:24.956Z,8.60
2018-09-20T17:17:26.800Z,5.00
2018-09-20T17:19:08.064Z,9.60
2018-09-20T17:20:46.444Z,8.20
2018-09-20T17:22:22.273Z,8.20
2018-09-20T17:24:01.024Z,9.20
2018-09-20T17:25:43.453Z,6.60
2018-09-20T17:27:27.417Z,8.80
2018-09-20T17:29:04.849Z,8.60
2018-09-20T17:30:40.757Z,7.60
2018-09-20T17:32:22.288Z,7.20
2018-09-20T17:33:59.619Z,7.00
2018-09-20T17:35:40.819Z,4.00
2018-09-20T17:37:25.160Z,5.40
2018-09-20T17:39:03.535Z,7.20
2018-09-20T17:40:44.107Z,9.20
2018-09-20T17:42:25.109Z,3.00
2018-09-20T17:44:07.266Z,6.00
2018-09-20T17:45:52.473Z,7.80
2018-09-20T17:47:34.421Z,5.60
2018-09-20T17:49:10.712Z,8.60
2018-09-20T17:50:50.289Z,6.20
2018-09-20T17:52:31.455Z,7.00
2018-09-20T17:54:17.021Z,8.40
2018-09-20T17:55:56.294Z,4.40
2018-09-20T17:57:36.387Z,7.40
2018-09-20T17:59:14.087Z,7.60
2018-09-20T18:00:50.822Z,6.00
2018-09-20T18:02:26.811Z,5.80
2018-09-20T18:04:03.817Z,7.20
2018-09-20T18:05:42.997Z,6.60
2018-09-20T18:07:24.418Z,7.80
2018-09-20T18:09:04.340Z,6.00
2018-09-20T18:10:42.088Z,8.20
2018-09-20T18:12:22.045Z,5.40
2018-09-20T18:14:03.256Z,6.40
2018-09-20T18:15:44.723Z,7.80
2018-09-20T18:17:25.688Z,8.00
2018-09-20T18:19:07.791Z,7.80
2018-09-20T18:20:55.134Z,8.00
2018-09-20T18:22:32.690Z,7.20
2018-09-20T18:24:10.122Z,6.80
2018-09-20T18:25:46.988Z,4.60
2018-09-20T18:27:32.621Z,6.00
2018-09-20T18:29:16.008Z,7.20
2018-09-20T18:30:56.759Z,6.20
2018-09-20T18:32:44.985Z,6.00
2018-09-20T18:34:25.315Z,7.80
2018-09-20T18:36:02.425Z,9.00
2018-09-20T18:37:46.927Z,7.00
2018-09-20T18:39:24.926Z,8.00
2018-09-20T18:41:07.457Z,4.20
2018-09-20T18:42:49.971Z,10.00
2018-09-20T18:44:39.686Z,9.60
2018-09-20T18:46:18.103Z,11.00
2018-09-20T18:48:02.600Z,11.00
2018-09-20T18:51:38.695Z,8.80
2018-09-20T18:53:16.565Z,9.40
2018-09-20T18:54:56.648Z,7.40
2018-09-20T18:56:33.129Z,7.40
2018-09-20T18:58:14.823Z,7.60
2018-09-20T18:59:50.805Z,7.60
2018-09-20T19:01:35.300Z,6.40
2018-09-20T19:03:15.239Z,5.00
2018-09-20T19:04:53.518Z,6.00
2018-09-20T19:06:35.761Z,6.40
2018-09-20T19:08:20.149Z,7.20
2018-09-20T19:10:04.263Z,6.00
2018-09-20T19:11:44.649Z,6.00
2018-09-20T19:13:35.139Z,7.20
2018-09-20T19:15:27.753Z,5.60
2018-09-20T19:17:06.697Z,8.20
2018-09-20T19:18:45.256Z,6.40
2018-09-20T19:20:22.938Z,5.00
2018-09-20T19:23:55.195Z,7.00
2018-09-20T19:25:35.930Z,6.00
2018-09-20T19:27:15.194Z,4.60
2018-09-20T19:28:57.518Z,7.00
2018-09-20T19:30:44.293Z,5.80
2018-09-20T19:32:25.183Z,7.20
2018-09-20T19:34:05.816Z,6.80
2018-09-20T19:35:47.438Z,6.20
2018-09-20T19:37:33.828Z,6.60
2018-09-20T19:39:19.446Z,5.40
2018-09-20T19:40:59.384Z,7.80
2018-09-20T19:42:37.611Z,8.40
2018-09-20T19:44:18.664Z,6.00
2018-09-20T19:45:58.363Z,6.00
2018-09-20T19:47:37.086Z,6.20
2018-09-20T19:49:15.278Z,5.00
2018-09-20T19:51:01.096Z,8.00
2018-09-20T19:52:39.676Z,5.00
2018-09-20T19:54:15.102Z,5.20
2018-09-20T19:55:53.437Z,7.00
2018-09-20T19:57:32.956Z,6.40
2018-09-20T19:59:09.567Z,5.40
2018-09-20T20:00:48.266Z,6.20
2018-09-20T20:02:24.636Z,6.00
2018-09-20T20:04:02.775Z,13.00
2018-09-20T20:05:51.375Z,6.40
2018-09-20T20:07:30.828Z,4.40
2018-09-20T20:09:11.400Z,8.40
2018-09-20T20:10:49.857Z,7.00
2018-09-20T20:12:29.265Z,7.00
2018-09-20T20:14:07.029Z,8.20
2018-09-20T20:15:47.282Z,6.60
2018-09-20T20:17:25.746Z,6.60
2018-09-20T20:19:04.781Z,5.60
2018-09-20T20:20:42.627Z,7.20
2018-09-20T20:22:22.726Z,5.80
2018-09-20T20:24:01.839Z,5.00
2018-09-20T20:25:46.072Z,4.60
2018-09-20T20:27:30.985Z,6.00
2018-09-20T20:29:10.502Z,5.20
2018-09-20T20:30:56.206Z,6.60
2018-09-20T20:32:34.207Z,6.20
2018-09-20T20:34:12.906Z,7.40
2018-09-20T20:35:50.459Z,9.80
2018-09-20T20:37:30.978Z,8.20
2018-09-20T20:39:10.530Z,5.40
2018-09-20T20:40:54.318Z,6.20
2018-09-20T20:42:37.429Z,5.00
2018-09-20T20:44:21.229Z,6.20
2018-09-20T20:46:00.678Z,6.20
2018-09-20T20:47:40.000Z,7.80
2018-09-20T20:49:19.628Z,6.00
2018-09-20T20:51:00.790Z,5.40
2018-09-20T20:52:37.320Z,6.40
2018-09-20T20:54:17.051Z,6.20
2018-09-20T20:57:38.338Z,6.00
2018-09-20T20:59:19.244Z,6.20
2018-09-20T21:01:05.027Z,5.20
2018-09-20T21:02:45.199Z,5.80
2018-09-20T21:04:28.744Z,6.80
2018-09-20T21:06:07.260Z,6.40
2018-09-20T21:07:49.435Z,6.00
2018-09-20T21:09:26.778Z,6.20
2018-09-20T21:11:08.416Z,6.40
2018-09-20T21:12:56.047Z,5.60
2018-09-20T21:14:37.803Z,9.40
2018-09-20T21:18:03.283Z,7.40
2018-09-20T21:21:29.852Z,7.00
2018-09-20T21:23:08.496Z,6.80
2018-09-20T21:24:46.550Z,5.00
2018-09-20T21:26:29.056Z,6.00
2018-09-20T21:28:11.146Z,5.20
2018-09-20T21:29:57.256Z,7.00
2018-09-20T21:31:43.343Z,7.00
2018-09-20T21:33:28.747Z,6.80
2018-09-20T21:35:07.496Z,6.00
2018-09-20T21:36:48.116Z,6.40
2018-09-20T21:38:35.434Z,4.20
2018-09-20T21:40:21.782Z,6.00
2018-09-20T21:42:05.766Z,6.00
2018-09-20T21:43:47.273Z,7.00
2018-09-20T21:45:33.929Z,7.00
2018-09-20T21:47:30.022Z,6.20
2018-09-20T21:49:11.583Z,7.80
2018-09-20T21:50:50.143Z,5.40
2018-09-20T21:52:39.690Z,9.20
2018-09-20T21:54:19.685Z,5.40
2018-09-20T21:55:59.382Z,6.60
2018-09-20T21:57:43.115Z,5.80
2018-09-20T21:59:20.684Z,6.20
2018-09-20T22:01:08.456Z,6.20
2018-09-20T22:02:58.350Z,6.20
2018-09-20T22:06:31.438Z,6.20
2018-09-20T22:08:24.577Z,8.20
2018-09-20T22:13:52.637Z,6.40
2018-09-20T22:15:46.831Z,1.00
2018-09-20T22:17:39.824Z,6.20
2018-09-20T22:19:22.483Z,7.80
2018-09-20T22:21:04.846Z,6.60
2018-09-20T22:22:45.096Z,6.00
2018-09-20T22:24:27.765Z,6.00